Time;durP1;ratioP1;P1;durP2;ratioP2;P2;SDS_P1;SDS_P2;PMS_P1;PMS_P2;Temp;Humidity;BMP_temperature;BMP_pressure;BME280_temperature;BME280_humidity;BME280_pressure;Samples;Min_cycle;Max_cycle;Signal;HPM_P1;HPM_P2
2022/10/27 00:00:36;;;;;;;60.55;21.63;;;;;;;;;;4989324;28;20201;-66
2022/10/27 00:03:22;;;;;;;48.50;22.33;;;;;;;;;;4988182;28;20046;-65
2022/10/27 00:05:48;;;;;;;43.53;21.77;;;;;;;;;;4989281;28;20047;-65
2022/10/27 00:08:21;;;;;;;41.63;22.10;;;;;;;;;;4989296;28;20050;-64
2022/10/27 00:11:04;;;;;;;44.80;20.65;;;;;;;;;;4987038;28;20069;-66
2022/10/27 00:13:31;;;;;;;50.22;21.45;;;;;;;;;;4983834;28;20060;-68
2022/10/27 00:15:59;;;;;;;39.92;21.70;;;;;;;;;;4984925;28;20137;-68
2022/10/27 00:18:26;;;;;;;45.83;21.70;;;;;;;;;;4988262;28;20062;-64
2022/10/27 00:21:09;;;;;;;48.35;22.63;;;;;;;;;;4990865;28;20050;-66
2022/10/27 00:23:35;;;;;;;49.45;23.05;;;;;;;;;;4986135;28;20503;-65
2022/10/27 00:26:02;;;;;;;44.88;21.73;;;;;;;;;;4988585;28;20056;-66
2022/10/27 00:28:28;;;;;;;52.72;25.25;;;;;;;;;;4989425;28;20050;-65
2022/10/27 00:30:58;;;;;;;46.75;24.27;;;;;;;;;;4985516;28;20506;-67
2022/10/27 00:33:24;;;;;;;55.05;24.33;;;;;;;;;;4991273;28;20061;-64
2022/10/27 00:35:50;;;;;;;49.65;23.80;;;;;;;;;;4992295;28;20046;-66
2022/10/27 00:38:16;;;;;;;48.38;23.45;;;;;;;;;;4989726;28;20066;-64
2022/10/27 00:40:42;;;;;;;48.42;25.23;;;;;;;;;;4973751;28;20389;-64
2022/10/27 00:43:43;;;;;;;52.67;24.73;;;;;;;;;;4989359;28;20520;-68
2022/10/27 00:46:23;;;;;;;44.72;24.58;;;;;;;;;;4912126;29;20047;-64
2022/10/27 00:48:53;;;;;;;57.15;25.33;;;;;;;;;;4913828;29;20139;-64
2022/10/27 00:51:19;;;;;;;50.22;26.20;;;;;;;;;;4906964;29;20063;-68
2022/10/27 00:53:46;;;;;;;49.50;25.73;;;;;;;;;;4915439;29;20048;-63
2022/10/27 00:56:13;;;;;;;50.42;25.98;;;;;;;;;;4895668;29;20055;-65
2022/10/27 00:58:40;;;;;;;47.08;26.63;;;;;;;;;;4913513;29;20137;-67
2022/10/27 01:01:06;;;;;;;50.97;26.95;;;;;;;;;;4911373;29;20076;-66
2022/10/27 01:03:32;;;;;;;56.15;26.42;;;;;;;;;;4913006;29;20072;-64
2022/10/27 01:05:58;;;;;;;56.92;27.75;;;;;;;;;;4909296;29;20063;-63
2022/10/27 01:08:25;;;;;;;62.90;29.50;;;;;;;;;;4905561;29;20553;-65
2022/10/27 01:10:52;;;;;;;64.32;29.67;;;;;;;;;;4911773;29;20268;-66
2022/10/27 01:13:19;;;;;;;60.53;28.15;;;;;;;;;;4911881;29;20052;-65
2022/10/27 01:15:51;;;;;;;61.67;29.63;;;;;;;;;;4913210;29;20538;-64
2022/10/27 01:18:29;;;;;;;65.45;30.73;;;;;;;;;;4911296;29;20515;-65
2022/10/27 01:21:13;;;;;;;62.47;29.05;;;;;;;;;;4977436;28;20412;-64
2022/10/27 01:23:51;;;;;;;66.80;29.58;;;;;;;;;;4990614;28;20049;-66
2022/10/27 01:26:38;;;;;;;65.03;28.85;;;;;;;;;;4973814;28;20250;-67
2022/10/27 01:29:30;;;;;;;55.47;25.90;;;;;;;;;;4970738;28;20042;-66
2022/10/27 01:32:16;;;;;;;52.78;24.30;;;;;;;;;;4986032;28;20062;-65
2022/10/27 01:34:54;;;;;;;47.50;22.13;;;;;;;;;;4970838;28;20170;-63
2022/10/27 01:38:02;;;;;;;47.25;21.80;;;;;;;;;;4970658;28;20134;-65
2022/10/27 01:40:45;;;;;;;41.10;21.27;;;;;;;;;;4906666;29;20068;-63
2022/10/27 01:43:20;;;;;;;45.47;20.95;;;;;;;;;;4906593;29;20062;-63
2022/10/27 01:45:47;;;;;;;48.65;20.85;;;;;;;;;;4908576;29;20136;-63
2022/10/27 01:48:14;;;;;;;39.03;19.77;;;;;;;;;;4912333;29;20040;-66
2022/10/27 01:50:41;;;;;;;40.17;18.90;;;;;;;;;;4911437;29;20052;-66
2022/10/27 01:53:10;;;;;;;38.42;18.00;;;;;;;;;;4901719;29;20048;-65
2022/10/27 01:56:04;;;;;;;42.65;18.13;;;;;;;;;;4905864;29;20044;-66
2022/10/27 01:58:49;;;;;;;38.45;16.58;;;;;;;;;;4893186;29;20135;-64
2022/10/27 02:01:37;;;;;;;34.72;15.27;;;;;;;;;;4903664;29;20606;-64
2022/10/27 02:04:31;;;;;;;34.38;14.77;;;;;;;;;;4908796;29;20044;-65
2022/10/27 02:07:21;;;;;;;37.22;13.43;;;;;;;;;;4904647;29;20115;-63
2022/10/27 02:09:56;;;;;;;38.58;15.32;;;;;;;;;;4908442;29;20054;-64
2022/10/27 02:12:33;;;;;;;36.72;14.48;;;;;;;;;;4904004;29;20044;-66
2022/10/27 02:15:02;;;;;;;33.35;14.38;;;;;;;;;;4968706;28;20535;-67
2022/10/27 02:17:32;;;;;;;28.90;13.65;;;;;;;;;;4983735;28;20125;-64
2022/10/27 02:20:00;;;;;;;34.42;14.50;;;;;;;;;;4987122;28;21076;-62
2022/10/27 02:22:28;;;;;;;29.23;13.88;;;;;;;;;;4988661;28;20425;-63
2022/10/27 02:24:55;;;;;;;32.50;13.07;;;;;;;;;;4987425;28;20054;-64
2022/10/27 02:27:37;;;;;;;32.15;12.75;;;;;;;;;;4986579;28;20129;-69
2022/10/27 02:30:04;;;;;;;27.33;12.50;;;;;;;;;;4986786;28;20130;-64
2022/10/27 02:32:32;;;;;;;29.75;11.48;;;;;;;;;;4986246;28;20093;-64
2022/10/27 02:34:59;;;;;;;29.70;10.93;;;;;;;;;;4988783;28;20404;-64
2022/10/27 02:37:34;;;;;;;31.83;11.85;;;;;;;;;;4985858;28;20342;-67
2022/10/27 02:40:01;;;;;;;33.30;11.98;;;;;;;;;;4986135;28;20043;-67
2022/10/27 02:42:27;;;;;;;24.30;11.23;;;;;;;;;;4972382;28;20046;-66
2022/10/27 02:44:53;;;;;;;26.48;11.38;;;;;;;;;;4988417;28;20065;-65
2022/10/27 02:47:19;;;;;;;25.77;10.52;;;;;;;;;;4989168;28;20503;-66
2022/10/27 02:49:45;;;;;;;24.92;10.82;;;;;;;;;;4988034;28;20042;-64
2022/10/27 02:52:12;;;;;;;24.88;10.55;;;;;;;;;;4987438;28;20456;-63
2022/10/27 02:54:39;;;;;;;21.08;9.73;;;;;;;;;;4988653;28;20042;-62
2022/10/27 02:57:05;;;;;;;21.35;9.50;;;;;;;;;;4987393;28;20046;-63
2022/10/27 02:59:31;;;;;;;24.98;9.18;;;;;;;;;;4971203;28;20046;-65
2022/10/27 03:01:57;;;;;;;27.00;8.70;;;;;;;;;;4951786;28;20484;-66
2022/10/27 03:04:23;;;;;;;31.38;8.57;;;;;;;;;;4989202;28;20535;-62
2022/10/27 03:06:49;;;;;;;25.92;7.63;;;;;;;;;;4984647;28;20137;-68
2022/10/27 03:09:15;;;;;;;19.27;8.07;;;;;;;;;;4985296;28;20412;-62
2022/10/27 03:11:41;;;;;;;29.10;9.02;;;;;;;;;;4986741;28;20485;-66
2022/10/27 03:14:07;;;;;;;32.70;9.18;;;;;;;;;;4988284;28;20050;-64
2022/10/27 03:16:33;;;;;;;32.65;10.35;;;;;;;;;;4986005;28;20039;-66
2022/10/27 03:18:59;;;;;;;30.70;9.73;;;;;;;;;;4970161;28;20085;-65
2022/10/27 03:21:25;;;;;;;36.25;10.63;;;;;;;;;;4984425;28;20038;-64
2022/10/27 03:23:51;;;;;;;33.28;10.40;;;;;;;;;;4987946;28;20042;-63
2022/10/27 03:26:17;;;;;;;30.98;10.90;;;;;;;;;;4991569;28;20049;-64
2022/10/27 03:28:43;;;;;;;33.85;10.50;;;;;;;;;;4994826;28;20054;-64
2022/10/27 03:31:09;;;;;;;34.85;10.55;;;;;;;;;;4998819;28;20104;-64
2022/10/27 03:33:35;;;;;;;30.20;9.32;;;;;;;;;;4976555;28;20520;-64
2022/10/27 03:36:01;;;;;;;27.20;8.90;;;;;;;;;;4976297;28;20081;-66
2022/10/27 03:38:27;;;;;;;25.02;8.40;;;;;;;;;;4971244;28;20121;-63
2022/10/27 03:40:53;;;;;;;26.10;8.70;;;;;;;;;;4971512;28;20047;-63
2022/10/27 03:43:19;;;;;;;22.60;8.13;;;;;;;;;;4972230;28;20043;-64
2022/10/27 03:45:49;;;;;;;24.88;7.72;;;;;;;;;;4971710;28;20100;-65
2022/10/27 03:48:15;;;;;;;23.48;8.18;;;;;;;;;;4967994;28;20297;-64
2022/10/27 03:50:47;;;;;;;21.77;8.40;;;;;;;;;;4968442;28;20043;-65
2022/10/27 03:53:14;;;;;;;20.80;8.05;;;;;;;;;;4971776;28;20052;-63
2022/10/27 03:55:40;;;;;;;17.75;6.85;;;;;;;;;;4972633;28;20245;-66
2022/10/27 03:58:13;;;;;;;18.17;6.47;;;;;;;;;;4970338;28;20949;-64
2022/10/27 04:00:39;;;;;;;19.58;6.22;;;;;;;;;;4971172;28;20130;-66
2022/10/27 04:03:06;;;;;;;17.52;6.28;;;;;;;;;;4973964;28;20043;-67
2022/10/27 04:05:31;;;;;;;17.83;6.35;;;;;;;;;;4971037;28;20057;-63
2022/10/27 04:07:58;;;;;;;21.73;6.70;;;;;;;;;;4967867;28;20062;-63
2022/10/27 04:10:24;;;;;;;17.08;6.07;;;;;;;;;;4967520;28;20066;-63
2022/10/27 04:12:55;;;;;;;19.92;6.25;;;;;;;;;;4972544;28;20130;-64
2022/10/27 04:15:23;;;;;;;20.25;6.68;;;;;;;;;;4975175;28;20077;-64
2022/10/27 04:17:54;;;;;;;21.35;6.00;;;;;;;;;;4972412;28;20109;-65
2022/10/27 04:20:19;;;;;;;20.38;6.97;;;;;;;;;;4969373;28;20046;-64
2022/10/27 04:22:46;;;;;;;19.73;6.68;;;;;;;;;;4976430;28;20050;-64
2022/10/27 04:25:12;;;;;;;34.20;8.10;;;;;;;;;;4969265;28;20392;-64
2022/10/27 04:27:38;;;;;;;23.25;7.50;;;;;;;;;;4973961;28;20129;-63
2022/10/27 04:30:04;;;;;;;22.83;7.32;;;;;;;;;;4976618;28;20177;-64
2022/10/27 04:32:30;;;;;;;21.05;6.28;;;;;;;;;;4933083;28;1319441;-64
2022/10/27 04:34:56;;;;;;;15.40;6.28;;;;;;;;;;4967867;28;20485;-62
2022/10/27 04:37:22;;;;;;;21.27;5.90;;;;;;;;;;4965755;28;20050;-65
2022/10/27 04:39:48;;;;;;;16.77;5.43;;;;;;;;;;4974808;28;20042;-65
2022/10/27 04:42:14;;;;;;;13.98;5.47;;;;;;;;;;4954057;28;20046;-66
2022/10/27 04:44:40;;;;;;;16.08;5.30;;;;;;;;;;4963993;28;20043;-66
2022/10/27 04:47:06;;;;;;;17.05;4.90;;;;;;;;;;4969581;28;20075;-64
2022/10/27 04:49:32;;;;;;;14.25;4.53;;;;;;;;;;4969764;28;20055;-65
2022/10/27 04:51:58;;;;;;;13.73;4.82;;;;;;;;;;4967238;28;20046;-64
2022/10/27 04:54:23;;;;;;;10.50;4.68;;;;;;;;;;4973049;28;20382;-64
2022/10/27 04:56:50;;;;;;;12.63;4.88;;;;;;;;;;4975187;28;20298;-64
2022/10/27 04:59:17;;;;;;;11.00;4.50;;;;;;;;;;4949017;28;20070;-63
2022/10/27 05:01:43;;;;;;;11.00;4.53;;;;;;;;;;4975583;28;20121;-65
2022/10/27 05:04:08;;;;;;;19.63;5.22;;;;;;;;;;4970696;28;20142;-67
2022/10/27 05:06:34;;;;;;;18.77;4.65;;;;;;;;;;4976753;28;20062;-64
2022/10/27 05:09:00;;;;;;;17.52;5.07;;;;;;;;;;4979468;28;20045;-68
2022/10/27 05:11:26;;;;;;;16.80;5.30;;;;;;;;;;4956499;28;20109;-64
2022/10/27 05:13:52;;;;;;;16.60;4.75;;;;;;;;;;4973543;28;20063;-66
2022/10/27 05:16:18;;;;;;;11.73;4.78;;;;;;;;;;4960341;28;20062;-65
2022/10/27 05:18:44;;;;;;;11.18;4.82;;;;;;;;;;4971662;28;20050;-66
2022/10/27 05:21:10;;;;;;;19.88;4.88;;;;;;;;;;4970645;28;20254;-67
2022/10/27 05:23:36;;;;;;;11.10;4.15;;;;;;;;;;4959689;28;20412;-63
2022/10/27 05:26:03;;;;;;;15.00;4.20;;;;;;;;;;4954683;28;20059;-66
2022/10/27 05:28:29;;;;;;;12.48;4.70;;;;;;;;;;4963968;28;20080;-64
2022/10/27 05:30:57;;;;;;;14.45;4.07;;;;;;;;;;4963148;28;20058;-67
2022/10/27 05:33:25;;;;;;;11.32;4.15;;;;;;;;;;4986343;28;20141;-66
2022/10/27 05:35:51;;;;;;;13.10;3.72;;;;;;;;;;4988539;28;20050;-66
2022/10/27 05:38:17;;;;;;;10.63;3.50;;;;;;;;;;4990158;28;20104;-63
2022/10/27 05:40:44;;;;;;;15.93;3.85;;;;;;;;;;4986639;28;20042;-67
2022/10/27 05:43:10;;;;;;;12.40;4.15;;;;;;;;;;4987843;28;20073;-64
2022/10/27 05:45:36;;;;;;;12.27;4.57;;;;;;;;;;4984340;28;20141;-63
2022/10/27 05:48:04;;;;;;;19.00;4.22;;;;;;;;;;4984390;28;20133;-65
2022/10/27 05:50:32;;;;;;;18.67;3.72;;;;;;;;;;4983647;28;20050;-65
2022/10/27 05:52:58;;;;;;;12.73;4.32;;;;;;;;;;4990850;28;20053;-66
2022/10/27 05:55:24;;;;;;;16.23;4.07;;;;;;;;;;4991696;28;20215;-68
2022/10/27 05:58:02;;;;;;;16.98;4.00;;;;;;;;;;4986420;28;20249;-66
2022/10/27 06:00:31;;;;;;;14.93;4.28;;;;;;;;;;4990289;28;20050;-67
2022/10/27 06:02:58;;;;;;;15.85;4.70;;;;;;;;;;4986935;28;20065;-68
2022/10/27 06:05:28;;;;;;;12.20;4.47;;;;;;;;;;4986208;28;20082;-65
2022/10/27 06:07:55;;;;;;;13.57;3.88;;;;;;;;;;4985336;28;20404;-66
2022/10/27 06:10:22;;;;;;;20.60;4.68;;;;;;;;;;4988421;28;20396;-67
2022/10/27 06:12:47;;;;;;;11.93;4.00;;;;;;;;;;4985761;28;20046;-65
2022/10/27 06:15:13;;;;;;;21.10;4.30;;;;;;;;;;4985370;28;20065;-66
2022/10/27 06:17:39;;;;;;;16.83;5.10;;;;;;;;;;4989228;28;20050;-64
2022/10/27 06:20:06;;;;;;;9.73;4.38;;;;;;;;;;4987377;28;20046;-64
2022/10/27 06:22:31;;;;;;;14.15;4.22;;;;;;;;;;4989599;28;20467;-65
2022/10/27 06:24:57;;;;;;;15.23;4.30;;;;;;;;;;4986515;28;20054;-66
2022/10/27 06:27:23;;;;;;;24.35;4.55;;;;;;;;;;4984719;28;20058;-66
2022/10/27 06:29:49;;;;;;;14.55;4.63;;;;;;;;;;4971109;28;20042;-65
2022/10/27 06:32:15;;;;;;;16.13;4.47;;;;;;;;;;4981693;28;20058;-63
2022/10/27 06:34:41;;;;;;;12.65;4.40;;;;;;;;;;4989374;28;20042;-63
2022/10/27 06:37:07;;;;;;;15.77;4.60;;;;;;;;;;4984568;28;20049;-65
2022/10/27 06:39:33;;;;;;;16.40;5.13;;;;;;;;;;4965118;28;20042;-65
2022/10/27 06:41:59;;;;;;;15.55;4.50;;;;;;;;;;4982814;28;20092;-63
2022/10/27 06:44:25;;;;;;;23.17;5.15;;;;;;;;;;4981411;28;20420;-65
2022/10/27 06:46:51;;;;;;;15.80;4.85;;;;;;;;;;4982404;28;20084;-66
2022/10/27 06:49:17;;;;;;;23.02;5.28;;;;;;;;;;4981571;28;20504;-67
2022/10/27 06:51:43;;;;;;;18.83;5.22;;;;;;;;;;4984932;28;20141;-66
2022/10/27 06:54:09;;;;;;;17.45;5.15;;;;;;;;;;4981667;28;20050;-64
2022/10/27 06:56:34;;;;;;;23.70;6.20;;;;;;;;;;4982905;28;20496;-70
2022/10/27 06:59:01;;;;;;;31.02;5.95;;;;;;;;;;4982131;28;20501;-66
2022/10/27 07:01:27;;;;;;;21.65;6.63;;;;;;;;;;4983192;28;20046;-65
2022/10/27 07:03:53;;;;;;;22.00;5.63;;;;;;;;;;4982116;28;20047;-64
2022/10/27 07:06:18;;;;;;;29.08;6.22;;;;;;;;;;4983395;28;20068;-66
2022/10/27 07:08:45;;;;;;;25.05;5.90;;;;;;;;;;4982887;28;20475;-66
2022/10/27 07:11:11;;;;;;;28.83;5.90;;;;;;;;;;4983742;28;20103;-64
2022/10/27 07:13:37;;;;;;;27.58;6.22;;;;;;;;;;4985765;28;20069;-63
2022/10/27 07:16:03;;;;;;;33.80;7.45;;;;;;;;;;4983888;28;20043;-66
2022/10/27 07:18:32;;;;;;;26.33;6.60;;;;;;;;;;4988327;28;20043;-64
2022/10/27 07:20:57;;;;;;;25.08;6.45;;;;;;;;;;4984795;28;20515;-65
2022/10/27 07:23:23;;;;;;;29.13;6.70;;;;;;;;;;4984747;28;20129;-65
2022/10/27 07:25:49;;;;;;;31.50;5.97;;;;;;;;;;4986109;28;20121;-66
2022/10/27 07:28:16;;;;;;;20.63;5.68;;;;;;;;;;4985015;28;20381;-65
2022/10/27 07:30:43;;;;;;;21.10;6.78;;;;;;;;;;4988932;28;20512;-64
2022/10/27 07:33:10;;;;;;;22.77;6.25;;;;;;;;;;4985373;28;20296;-66
2022/10/27 07:35:36;;;;;;;27.23;6.78;;;;;;;;;;4983676;28;20523;-66
2022/10/27 07:38:03;;;;;;;28.15;5.95;;;;;;;;;;4985078;28;20133;-66
2022/10/27 07:40:29;;;;;;;33.42;6.88;;;;;;;;;;4980375;28;20046;-66
2022/10/27 07:42:56;;;;;;;25.60;7.60;;;;;;;;;;4983308;28;20070;-65
2022/10/27 07:45:23;;;;;;;29.48;7.35;;;;;;;;;;4985015;28;20460;-64
2022/10/27 07:47:52;;;;;;;24.98;6.88;;;;;;;;;;4979729;28;20743;-64
2022/10/27 07:50:19;;;;;;;32.42;7.28;;;;;;;;;;4979012;28;20077;-65
2022/10/27 07:52:47;;;;;;;21.55;6.38;;;;;;;;;;4980945;28;20797;-65
2022/10/27 07:55:14;;;;;;;25.23;6.82;;;;;;;;;;4984682;28;20054;-65
2022/10/27 07:57:42;;;;;;;20.48;6.55;;;;;;;;;;4981117;28;20049;-65
2022/10/27 08:00:11;;;;;;;26.92;7.10;;;;;;;;;;4987142;28;20049;-66
2022/10/27 08:02:37;;;;;;;23.80;7.25;;;;;;;;;;4986400;28;20593;-63
2022/10/27 08:05:03;;;;;;;20.35;6.68;;;;;;;;;;4984031;28;20125;-65
2022/10/27 08:07:29;;;;;;;31.50;7.13;;;;;;;;;;4984606;28;20050;-65
2022/10/27 08:09:55;;;;;;;22.95;6.63;;;;;;;;;;4984145;28;20041;-64
2022/10/27 08:12:21;;;;;;;20.75;5.90;;;;;;;;;;4986935;28;20078;-65
2022/10/27 08:14:47;;;;;;;30.13;6.38;;;;;;;;;;4987888;28;20042;-72
2022/10/27 08:17:14;;;;;;;25.17;6.43;;;;;;;;;;4987343;28;20069;-73
2022/10/27 08:19:40;;;;;;;21.67;6.28;;;;;;;;;;4989098;28;20046;-66
2022/10/27 08:22:06;;;;;;;19.20;5.25;;;;;;;;;;4988616;28;20089;-68
2022/10/27 08:24:31;;;;;;;25.50;5.82;;;;;;;;;;4971413;28;20160;-71
2022/10/27 08:26:57;;;;;;;26.67;5.65;;;;;;;;;;4989751;28;20043;-67
2022/10/27 08:29:25;;;;;;;22.55;5.80;;;;;;;;;;4990648;28;20141;-66
2022/10/27 08:31:52;;;;;;;20.48;6.25;;;;;;;;;;4991770;28;20109;-67
2022/10/27 08:34:18;;;;;;;20.95;5.85;;;;;;;;;;4991170;28;20411;-66
2022/10/27 08:36:44;;;;;;;32.67;6.28;;;;;;;;;;4989364;28;20050;-70
2022/10/27 08:39:11;;;;;;;26.38;6.32;;;;;;;;;;4988533;28;20104;-66
2022/10/27 08:42:09;;;;;;;19.05;5.45;;;;;;;;;;4986360;28;20068;-64
2022/10/27 08:44:50;;;;;;;21.58;5.95;;;;;;;;;;4975389;28;20054;-66
2022/10/27 08:47:21;;;;;;;18.00;5.50;;;;;;;;;;4988145;28;20052;-64
2022/10/27 08:49:52;;;;;;;22.45;5.45;;;;;;;;;;4972278;28;20050;-64
2022/10/27 08:52:31;;;;;;;25.80;6.70;;;;;;;;;;4989688;28;20082;-66
2022/10/27 08:55:08;;;;;;;21.45;6.10;;;;;;;;;;4989865;28;20043;-64
2022/10/27 08:57:34;;;;;;;18.80;5.55;;;;;;;;;;4988623;28;20500;-66
2022/10/27 08:59:59;;;;;;;16.63;6.35;;;;;;;;;;4988287;28;20089;-63
2022/10/27 09:02:28;;;;;;;15.68;5.22;;;;;;;;;;4989187;28;20054;-65
2022/10/27 09:05:12;;;;;;;24.35;6.90;;;;;;;;;;4987717;28;20042;-65
2022/10/27 09:08:24;;;;;;;19.02;6.10;;;;;;;;;;4988388;28;20088;-64
2022/10/27 09:11:03;;;;;;;19.63;5.70;;;;;;;;;;4984231;28;20121;-66
2022/10/27 09:14:17;;;;;;;17.35;6.38;;;;;;;;;;4989724;28;20046;-64
2022/10/27 09:17:09;;;;;;;21.33;5.88;;;;;;;;;;4980132;28;20046;-63
2022/10/27 09:19:42;;;;;;;19.20;6.03;;;;;;;;;;4983438;28;20058;-64
2022/10/27 09:22:14;;;;;;;16.38;6.38;;;;;;;;;;4985889;28;20043;-65
2022/10/27 09:24:40;;;;;;;22.52;7.05;;;;;;;;;;4987414;28;20047;-64
2022/10/27 09:27:08;;;;;;;28.50;7.57;;;;;;;;;;4986830;28;20042;-65
2022/10/27 09:29:36;;;;;;;27.35;6.82;;;;;;;;;;4980188;28;20038;-67
2022/10/27 09:32:22;;;;;;;22.30;7.32;;;;;;;;;;4987181;28;20050;-66
2022/10/27 09:35:08;;;;;;;21.13;7.85;;;;;;;;;;4990504;28;20046;-65
2022/10/27 09:37:39;;;;;;;24.35;7.90;;;;;;;;;;4985927;28;20054;-64
2022/10/27 09:40:13;;;;;;;23.85;7.90;;;;;;;;;;4987239;28;20478;-65
2022/10/27 09:42:40;;;;;;;24.25;8.35;;;;;;;;;;4985062;28;22173;-65
2022/10/27 09:45:12;;;;;;;28.13;8.15;;;;;;;;;;4986803;28;20046;-66
2022/10/27 09:47:40;;;;;;;20.73;7.95;;;;;;;;;;4986361;28;20063;-66
2022/10/27 09:50:35;;;;;;;25.92;7.75;;;;;;;;;;4985968;28;20043;-65
2022/10/27 09:53:02;;;;;;;;;;;;;;;;;;4985959;28;20504;-64
2022/10/27 09:55:49;;;;;;;33.42;9.23;;;;;;;;;;4987484;28;19928;-66
2022/10/27 09:58:16;;;;;;;25.27;8.48;;;;;;;;;;4983437;28;20042;-66
2022/10/27 10:00:41;;;;;;;26.05;9.07;;;;;;;;;;4985817;28;20069;-67
2022/10/27 10:03:19;;;;;;;25.27;10.40;;;;;;;;;;4987223;28;20492;-65
2022/10/27 10:05:47;;;;;;;27.10;10.35;;;;;;;;;;4987795;28;20053;-68
2022/10/27 10:08:22;;;;;;;28.50;11.60;;;;;;;;;;4988058;28;20367;-66
2022/10/27 10:11:05;;;;;;;26.52;11.60;;;;;;;;;;4979132;28;20552;-67
2022/10/27 10:13:32;;;;;;;21.67;10.93;;;;;;;;;;4981367;28;20046;-68
2022/10/27 10:16:11;;;;;;;31.10;10.98;;;;;;;;;;4985664;28;20408;-67
2022/10/27 10:18:39;;;;;;;26.90;10.65;;;;;;;;;;4982060;28;20100;-64
2022/10/27 10:21:09;;;;;;;28.88;13.63;;;;;;;;;;4985624;28;20048;-67
2022/10/27 10:23:41;;;;;;;22.88;9.90;;;;;;;;;;4988431;28;20046;-66
2022/10/27 10:26:16;;;;;;;27.90;11.13;;;;;;;;;;4988013;28;20154;-64
2022/10/27 10:28:43;;;;;;;28.00;10.43;;;;;;;;;;4986154;28;20041;-64
2022/10/27 10:31:19;;;;;;;21.83;9.88;;;;;;;;;;4985350;28;20042;-69
2022/10/27 10:33:46;;;;;;;26.20;10.07;;;;;;;;;;4986305;28;20046;-67
2022/10/27 10:36:35;;;;;;;27.67;10.32;;;;;;;;;;4986175;28;20088;-66
2022/10/27 10:39:02;;;;;;;21.65;9.02;;;;;;;;;;4988745;28;20053;-67
2022/10/27 10:41:29;;;;;;;19.35;9.32;;;;;;;;;;4968594;28;20069;-66
2022/10/27 10:44:10;;;;;;;26.60;9.85;;;;;;;;;;4981589;28;20050;-68
2022/10/27 10:46:40;;;;;;;22.35;9.00;;;;;;;;;;4986166;28;20507;-66
2022/10/27 10:49:22;;;;;;;26.77;8.88;;;;;;;;;;4985453;28;20607;-67
2022/10/27 10:51:51;;;;;;;20.40;8.75;;;;;;;;;;4985863;28;20050;-66
2022/10/27 10:54:24;;;;;;;22.25;8.85;;;;;;;;;;4986452;28;20544;-64
2022/10/27 10:56:52;;;;;;;24.27;8.80;;;;;;;;;;4987191;28;20046;-64
2022/10/27 10:59:21;;;;;;;37.17;9.65;;;;;;;;;;4989210;28;20093;-65
2022/10/27 11:01:53;;;;;;;22.52;8.88;;;;;;;;;;4989173;28;20133;-64
2022/10/27 11:04:24;;;;;;;17.63;8.55;;;;;;;;;;4987162;28;20086;-64
2022/10/27 11:07:05;;;;;;;27.40;9.38;;;;;;;;;;4986412;28;20423;-68
2022/10/27 11:10:00;;;;;;;25.52;9.10;;;;;;;;;;4987542;28;20073;-66
2022/10/27 11:12:46;;;;;;;25.77;8.73;;;;;;;;;;4982966;28;20055;-66
2022/10/27 11:15:24;;;;;;;21.92;8.82;;;;;;;;;;4980893;28;20084;-66
2022/10/27 11:17:53;;;;;;;20.38;9.80;;;;;;;;;;4986039;28;20060;-64
2022/10/27 11:20:26;;;;;;;24.73;10.43;;;;;;;;;;4962286;28;20047;-70
2022/10/27 11:22:54;;;;;;;27.42;10.07;;;;;;;;;;4983488;28;20054;-71
2022/10/27 11:25:24;;;;;;;33.65;10.63;;;;;;;;;;4981857;28;20046;-69
2022/10/27 11:28:04;;;;;;;33.63;11.25;;;;;;;;;;4982248;28;20054;-72
2022/10/27 11:30:33;;;;;;;39.60;11.55;;;;;;;;;;4981375;28;20077;-71
2022/10/27 11:33:05;;;;;;;28.33;10.43;;;;;;;;;;4966457;28;20200;-69
2022/10/27 11:35:45;;;;;;;27.33;11.98;;;;;;;;;;4964084;28;20392;-70
2022/10/27 11:38:30;;;;;;;28.52;11.07;;;;;;;;;;4969130;28;20560;-69
2022/10/27 11:41:18;;;;;;;28.00;10.63;;;;;;;;;;4965403;28;20054;-71
2022/10/27 11:43:58;;;;;;;24.55;10.65;;;;;;;;;;4963413;28;20047;-70
2022/10/27 11:46:34;;;;;;;25.48;11.13;;;;;;;;;;4967418;28;20047;-69
2022/10/27 11:49:09;;;;;;;33.80;12.35;;;;;;;;;;4970795;28;20562;-70
2022/10/27 11:51:43;;;;;;;23.65;11.38;;;;;;;;;;4970893;28;20055;-69
2022/10/27 11:54:10;;;;;;;23.15;10.30;;;;;;;;;;4972734;28;20043;-69
2022/10/27 11:56:42;;;;;;;23.05;10.70;;;;;;;;;;4951637;28;20050;-70
2022/10/27 11:59:41;;;;;;;27.00;11.10;;;;;;;;;;4972529;28;20062;-70
2022/10/27 12:02:42;;;;;;;23.25;10.13;;;;;;;;;;4970224;28;20188;-70
2022/10/27 12:05:24;;;;;;;32.53;10.57;;;;;;;;;;4977045;28;20137;-68
2022/10/27 12:08:06;;;;;;;32.85;10.40;;;;;;;;;;4968591;28;20129;-70
2022/10/27 12:10:42;;;;;;;31.33;10.88;;;;;;;;;;4971993;28;20054;-71
2022/10/27 12:13:20;;;;;;;24.95;9.90;;;;;;;;;;4968261;28;20575;-72
2022/10/27 12:15:54;;;;;;;28.27;10.40;;;;;;;;;;4970340;28;20588;-70
2022/10/27 12:19:01;;;;;;;34.67;10.10;;;;;;;;;;4967805;28;20050;-70
2022/10/27 12:21:40;;;;;;;26.58;10.27;;;;;;;;;;4953485;28;20055;-70
2022/10/27 12:24:27;;;;;;;25.15;10.77;;;;;;;;;;4966939;28;20070;-71
2022/10/27 12:26:56;;;;;;;28.48;10.77;;;;;;;;;;4962672;28;20568;-70
2022/10/27 12:29:29;;;;;;;25.20;10.07;;;;;;;;;;4968421;28;20074;-69
2022/10/27 12:32:06;;;;;;;24.27;9.97;;;;;;;;;;4969458;28;20171;-72
2022/10/27 12:34:38;;;;;;;31.85;10.20;;;;;;;;;;4959012;28;20577;-69
2022/10/27 12:37:21;;;;;;;26.88;10.80;;;;;;;;;;4959933;28;20051;-70
2022/10/27 12:40:11;;;;;;;26.25;10.40;;;;;;;;;;4962656;28;20047;-70
2022/10/27 12:42:58;;;;;;;25.17;11.85;;;;;;;;;;4965529;28;20278;-70
2022/10/27 12:45:27;;;;;;;37.88;11.65;;;;;;;;;;4971333;28;20055;-69
2022/10/27 12:48:05;;;;;;;28.80;10.95;;;;;;;;;;4970138;28;20396;-69
2022/10/27 12:50:42;;;;;;;20.05;11.07;;;;;;;;;;4966463;28;20416;-69
2022/10/27 12:53:11;;;;;;;24.20;11.38;;;;;;;;;;4965550;28;20134;-69
2022/10/27 12:55:37;;;;;;;24.15;11.63;;;;;;;;;;4966665;28;20055;-72
2022/10/27 12:58:20;;;;;;;30.15;11.25;;;;;;;;;;4963866;28;20066;-73
2022/10/27 13:01:09;;;;;;;24.65;11.18;;;;;;;;;;4970221;28;20043;-69
2022/10/27 13:03:54;;;;;;;21.10;11.68;;;;;;;;;;4969979;28;20081;-70
2022/10/27 13:06:41;;;;;;;33.33;11.90;;;;;;;;;;4969045;28;20799;-69
2022/10/27 13:09:45;;;;;;;26.45;10.88;;;;;;;;;;4947554;28;20097;-72
2022/10/27 13:12:57;;;;;;;20.17;9.93;;;;;;;;;;4927542;29;20079;-72
2022/10/27 13:15:44;;;;;;;23.00;10.30;;;;;;;;;;4924005;29;20055;-70
2022/10/27 13:18:32;;;;;;;21.02;11.80;;;;;;;;;;4929800;29;20055;-70
2022/10/27 13:21:03;;;;;;;36.33;17.15;;;;;;;;;;4928294;29;20059;-72
2022/10/27 13:23:46;;;;;;;29.40;14.75;;;;;;;;;;4926822;29;20079;-72
2022/10/27 13:26:44;;;;;;;31.77;14.35;;;;;;;;;;4931772;29;20126;-72
2022/10/27 13:29:38;;;;;;;32.53;13.85;;;;;;;;;;4930235;29;20083;-74
2022/10/27 13:32:16;;;;;;;29.92;13.88;;;;;;;;;;4927462;28;20425;-73
2022/10/27 13:35:03;;;;;;;29.23;11.88;;;;;;;;;;4945704;28;20113;-72
2022/10/27 13:37:48;;;;;;;26.50;13.18;;;;;;;;;;4945232;29;20074;-72
2022/10/27 13:40:20;;;;;;;24.23;12.60;;;;;;;;;;4949119;29;20122;-70
2022/10/27 13:42:48;;;;;;;24.02;11.43;;;;;;;;;;4946895;29;20055;-71
2022/10/27 13:45:27;;;;;;;28.40;10.32;;;;;;;;;;4937836;28;20055;-69
2022/10/27 13:48:09;;;;;;;19.33;9.38;;;;;;;;;;4990640;28;20038;-71
2022/10/27 13:50:49;;;;;;;23.67;8.68;;;;;;;;;;4987406;28;20580;-69
2022/10/27 13:53:15;;;;;;;23.50;8.27;;;;;;;;;;4985650;28;20050;-71
2022/10/27 13:55:52;;;;;;;20.90;8.95;;;;;;;;;;4991757;28;20060;-73
2022/10/27 13:58:21;;;;;;;23.25;8.63;;;;;;;;;;4988950;28;20042;-70
2022/10/27 14:01:03;;;;;;;19.38;8.35;;;;;;;;;;4980115;28;20118;-70
2022/10/27 14:03:32;;;;;;;16.00;8.27;;;;;;;;;;4982752;28;20141;-70
2022/10/27 14:05:58;;;;;;;19.10;8.05;;;;;;;;;;4985489;28;20121;-72
2022/10/27 14:08:27;;;;;;;22.48;8.57;;;;;;;;;;4964713;28;20078;-69
2022/10/27 14:10:57;;;;;;;19.67;8.40;;;;;;;;;;4985803;28;20050;-70
2022/10/27 14:13:55;;;;;;;24.95;7.88;;;;;;;;;;4982455;28;20049;-71
2022/10/27 14:16:30;;;;;;;19.55;7.05;;;;;;;;;;4963406;28;20062;-70
2022/10/27 14:19:13;;;;;;;22.35;7.60;;;;;;;;;;4981721;28;20073;-73
2022/10/27 14:21:46;;;;;;;20.27;7.70;;;;;;;;;;4980187;28;20528;-67
2022/10/27 14:24:23;;;;;;;19.48;7.10;;;;;;;;;;4978851;28;20758;-66
2022/10/27 14:26:57;;;;;;;21.90;6.97;;;;;;;;;;4984716;28;20062;-66
2022/10/27 14:29:24;;;;;;;21.00;7.88;;;;;;;;;;4983364;28;20682;-67
2022/10/27 14:31:50;;;;;;;17.52;7.05;;;;;;;;;;4983392;28;20104;-68
2022/10/27 14:34:25;;;;;;;18.55;6.40;;;;;;;;;;4963461;28;20053;-71
2022/10/27 14:36:54;;;;;;;16.20;6.78;;;;;;;;;;4980095;28;20042;-68
2022/10/27 14:39:27;;;;;;;29.98;8.10;;;;;;;;;;4980700;28;20051;-66
2022/10/27 14:42:12;;;;;;;23.05;7.43;;;;;;;;;;4986206;28;20050;-68
2022/10/27 14:44:42;;;;;;;24.65;8.30;;;;;;;;;;4982457;28;20136;-70
2022/10/27 14:47:13;;;;;;;24.38;8.52;;;;;;;;;;4983826;28;20053;-70
2022/10/27 14:49:46;;;;;;;16.70;7.32;;;;;;;;;;4987376;28;20455;-71
2022/10/27 14:52:37;;;;;;;21.10;7.40;;;;;;;;;;4980055;28;20364;-68
2022/10/27 14:55:03;;;;;;;19.00;6.95;;;;;;;;;;4967492;28;20046;-65